sensor_id;sensor_type;location;lat;lon;timestamp;temperature;humidity
24814;DHT22;12904;50.088;11.414;2022-09-23T00:02:20;5.50;99.90
24814;DHT22;12904;50.088;11.414;2022-09-23T00:04:47;5.50;99.90
24814;DHT22;12904;50.088;11.414;2022-09-23T00:07:12;5.50;99.90
24814;DHT22;12904;50.088;11.414;2022-09-23T00:09:38;5.40;99.90
24814;DHT22;12904;50.088;11.414;2022-09-23T00:12:04;5.40;99.90
24814;DHT22;12904;50.088;11.414;2022-09-23T00:14:30;5.50;99.90
24814;DHT22;12904;50.088;11.414;2022-09-23T00:16:55;5.50;99.90
24814;DHT22;12904;50.088;11.414;2022-09-23T00:19:21;5.40;99.90
24814;DHT22;12904;50.088;11.414;2022-09-23T00:21:47;5.40;99.90
24814;DHT22;12904;50.088;11.414;2022-09-23T00:24:12;5.40;99.90
24814;DHT22;12904;50.088;11.414;2022-09-23T00:26:40;5.30;99.90
24814;DHT22;12904;50.088;11.414;2022-09-23T00:29:06;5.30;99.90
24814;DHT22;12904;50.088;11.414;2022-09-23T00:31:32;5.30;99.90
24814;DHT22;12904;50.088;11.414;2022-09-23T00:33:59;5.20;99.90
24814;DHT22;12904;50.088;11.414;2022-09-23T00:36:26;5.10;99.90
24814;DHT22;12904;50.088;11.414;2022-09-23T00:38:52;5.10;99.90
24814;DHT22;12904;50.088;11.414;2022-09-23T00:41:18;5.00;99.90
24814;DHT22;12904;50.088;11.414;2022-09-23T00:43:49;5.00;99.90
24814;DHT22;12904;50.088;11.414;2022-09-23T00:48:54;5.00;99.90
24814;DHT22;12904;50.088;11.414;2022-09-23T00:51:23;5.00;99.90
24814;DHT22;12904;50.088;11.414;2022-09-23T00:53:51;5.00;99.90
24814;DHT22;12904;50.088;11.414;2022-09-23T00:56:19;5.00;99.90
24814;DHT22;12904;50.088;11.414;2022-09-23T00:58:46;5.00;99.90
24814;DHT22;12904;50.088;11.414;2022-09-23T01:01:13;5.00;99.90
24814;DHT22;12904;50.088;11.414;2022-09-23T01:03:40;5.00;99.90
24814;DHT22;12904;50.088;11.414;2022-09-23T01:06:08;5.00;99.90
24814;DHT22;12904;50.088;11.414;2022-09-23T01:08:34;4.90;99.90
24814;DHT22;12904;50.088;11.414;2022-09-23T01:11:14;4.90;99.90
24814;DHT22;12904;50.088;11.414;2022-09-23T01:18:52;4.80;99.90
24814;DHT22;12904;50.088;11.414;2022-09-23T01:21:52;4.80;99.90
24814;DHT22;12904;50.088;11.414;2022-09-23T01:27:36;4.70;99.90
24814;DHT22;12904;50.088;11.414;2022-09-23T01:33:15;4.50;99.90
24814;DHT22;12904;50.088;11.414;2022-09-23T01:38:44;4.50;99.90
24814;DHT22;12904;50.088;11.414;2022-09-23T01:44:12;4.40;99.90
24814;DHT22;12904;50.088;11.414;2022-09-23T01:46:56;4.40;99.90
24814;DHT22;12904;50.088;11.414;2022-09-23T01:49:34;4.30;99.90
24814;DHT22;12904;50.088;11.414;2022-09-23T01:52:13;4.30;99.90
24814;DHT22;12904;50.088;11.414;2022-09-23T01:55:09;4.30;99.90
24814;DHT22;12904;50.088;11.414;2022-09-23T01:57:41;4.30;99.90
24814;DHT22;12904;50.088;11.414;2022-09-23T02:00:13;4.30;99.90
24814;DHT22;12904;50.088;11.414;2022-09-23T02:05:24;4.30;99.90
24814;DHT22;12904;50.088;11.414;2022-09-23T02:08:16;4.20;99.90
24814;DHT22;12904;50.088;11.414;2022-09-23T02:10:47;4.30;99.90
24814;DHT22;12904;50.088;11.414;2022-09-23T02:13:27;4.30;99.90
24814;DHT22;12904;50.088;11.414;2022-09-23T02:15:58;4.30;99.90
24814;DHT22;12904;50.088;11.414;2022-09-23T02:18:28;4.30;99.90
24814;DHT22;12904;50.088;11.414;2022-09-23T02:20:59;4.40;99.90
24814;DHT22;12904;50.088;11.414;2022-09-23T02:23:33;4.40;99.90
24814;DHT22;12904;50.088;11.414;2022-09-23T02:26:20;4.40;99.90
24814;DHT22;12904;50.088;11.414;2022-09-23T02:32:08;4.30;99.90
24814;DHT22;12904;50.088;11.414;2022-09-23T02:40:01;4.30;99.90
24814;DHT22;12904;50.088;11.414;2022-09-23T02:45:39;4.20;99.90
24814;DHT22;12904;50.088;11.414;2022-09-23T02:50:44;4.20;99.90
24814;DHT22;12904;50.088;11.414;2022-09-23T02:53:12;4.10;99.90
24814;DHT22;12904;50.088;11.414;2022-09-23T02:55:41;4.20;99.90
24814;DHT22;12904;50.088;11.414;2022-09-23T02:58:09;4.20;99.90
24814;DHT22;12904;50.088;11.414;2022-09-23T03:06:54;4.10;99.90
24814;DHT22;12904;50.088;11.414;2022-09-23T03:14:57;4.10;99.90
24814;DHT22;12904;50.088;11.414;2022-09-23T03:20:32;4.10;99.90
24814;DHT22;12904;50.088;11.414;2022-09-23T03:23:01;4.10;99.90
24814;DHT22;12904;50.088;11.414;2022-09-23T03:25:30;4.10;99.90
24814;DHT22;12904;50.088;11.414;2022-09-23T03:27:59;4.10;99.90
24814;DHT22;12904;50.088;11.414;2022-09-23T03:30:26;4.10;99.90
24814;DHT22;12904;50.088;11.414;2022-09-23T03:32:54;4.00;99.90
24814;DHT22;12904;50.088;11.414;2022-09-23T03:35:23;4.00;99.90
24814;DHT22;12904;50.088;11.414;2022-09-23T03:37:55;4.00;99.90
24814;DHT22;12904;50.088;11.414;2022-09-23T03:40:27;4.00;99.90
24814;DHT22;12904;50.088;11.414;2022-09-23T03:42:55;4.00;99.90
24814;DHT22;12904;50.088;11.414;2022-09-23T03:45:25;3.90;99.90
24814;DHT22;12904;50.088;11.414;2022-09-23T03:47:51;3.90;99.90
24814;DHT22;12904;50.088;11.414;2022-09-23T03:50:17;3.80;99.90
24814;DHT22;12904;50.088;11.414;2022-09-23T03:52:43;3.80;99.90
24814;DHT22;12904;50.088;11.414;2022-09-23T03:55:09;3.70;99.90
24814;DHT22;12904;50.088;11.414;2022-09-23T03:57:36;3.60;99.90
24814;DHT22;12904;50.088;11.414;2022-09-23T04:00:03;3.60;99.90
24814;DHT22;12904;50.088;11.414;2022-09-23T04:02:30;3.60;99.90
24814;DHT22;12904;50.088;11.414;2022-09-23T04:04:56;3.60;99.90
24814;DHT22;12904;50.088;11.414;2022-09-23T04:07:22;3.60;99.90
24814;DHT22;12904;50.088;11.414;2022-09-23T04:09:47;3.60;99.90
24814;DHT22;12904;50.088;11.414;2022-09-23T04:12:14;3.60;99.90
24814;DHT22;12904;50.088;11.414;2022-09-23T04:14:41;3.60;99.90
24814;DHT22;12904;50.088;11.414;2022-09-23T04:17:06;3.70;99.90
24814;DHT22;12904;50.088;11.414;2022-09-23T04:19:32;3.70;99.90
24814;DHT22;12904;50.088;11.414;2022-09-23T04:21:58;3.60;99.90
24814;DHT22;12904;50.088;11.414;2022-09-23T04:24:24;3.70;99.90
24814;DHT22;12904;50.088;11.414;2022-09-23T04:26:51;3.70;99.90
24814;DHT22;12904;50.088;11.414;2022-09-23T04:29:18;3.70;99.90
24814;DHT22;12904;50.088;11.414;2022-09-23T04:31:44;3.60;99.90
24814;DHT22;12904;50.088;11.414;2022-09-23T04:34:09;3.60;99.90
24814;DHT22;12904;50.088;11.414;2022-09-23T04:36:35;3.60;99.90
24814;DHT22;12904;50.088;11.414;2022-09-23T04:39:01;3.60;99.90
24814;DHT22;12904;50.088;11.414;2022-09-23T04:41:27;3.60;99.90
24814;DHT22;12904;50.088;11.414;2022-09-23T04:43:52;3.60;99.90
24814;DHT22;12904;50.088;11.414;2022-09-23T04:46:18;3.70;99.90
24814;DHT22;12904;50.088;11.414;2022-09-23T04:48:44;3.70;99.90
24814;DHT22;12904;50.088;11.414;2022-09-23T04:51:18;3.70;99.90
24814;DHT22;12904;50.088;11.414;2022-09-23T04:53:46;3.70;99.90
24814;DHT22;12904;50.088;11.414;2022-09-23T04:56:20;3.70;99.90
24814;DHT22;12904;50.088;11.414;2022-09-23T04:58:47;3.70;99.90
24814;DHT22;12904;50.088;11.414;2022-09-23T05:03:44;3.60;99.90
24814;DHT22;12904;50.088;11.414;2022-09-23T05:06:11;3.60;99.90
24814;DHT22;12904;50.088;11.414;2022-09-23T05:08:39;3.60;99.90
24814;DHT22;12904;50.088;11.414;2022-09-23T05:11:05;3.60;99.90
24814;DHT22;12904;50.088;11.414;2022-09-23T05:13:31;3.60;99.90
24814;DHT22;12904;50.088;11.414;2022-09-23T05:15:59;3.60;99.90
24814;DHT22;12904;50.088;11.414;2022-09-23T05:18:26;3.50;99.90
24814;DHT22;12904;50.088;11.414;2022-09-23T05:20:53;3.50;99.90
24814;DHT22;12904;50.088;11.414;2022-09-23T05:23:20;3.50;99.90
24814;DHT22;12904;50.088;11.414;2022-09-23T05:25:46;3.50;99.90
24814;DHT22;12904;50.088;11.414;2022-09-23T05:28:13;3.50;99.90
24814;DHT22;12904;50.088;11.414;2022-09-23T05:30:42;3.50;99.90
24814;DHT22;12904;50.088;11.414;2022-09-23T05:33:09;3.40;99.90
24814;DHT22;12904;50.088;11.414;2022-09-23T05:35:34;3.50;99.90
24814;DHT22;12904;50.088;11.414;2022-09-23T05:38:00;3.50;99.90
24814;DHT22;12904;50.088;11.414;2022-09-23T05:40:26;3.50;99.90
24814;DHT22;12904;50.088;11.414;2022-09-23T05:42:51;3.50;99.90
24814;DHT22;12904;50.088;11.414;2022-09-23T05:45:17;3.50;99.90
24814;DHT22;12904;50.088;11.414;2022-09-23T05:47:43;3.50;99.90
24814;DHT22;12904;50.088;11.414;2022-09-23T05:50:08;3.60;99.90
24814;DHT22;12904;50.088;11.414;2022-09-23T05:52:34;3.60;99.90
24814;DHT22;12904;50.088;11.414;2022-09-23T05:55:00;3.70;99.90
24814;DHT22;12904;50.088;11.414;2022-09-23T05:57:27;3.70;99.90
24814;DHT22;12904;50.088;11.414;2022-09-23T05:59:52;3.80;99.90
24814;DHT22;12904;50.088;11.414;2022-09-23T06:02:18;3.90;99.90
24814;DHT22;12904;50.088;11.414;2022-09-23T06:04:43;4.00;99.90
24814;DHT22;12904;50.088;11.414;2022-09-23T06:07:09;4.10;99.90
24814;DHT22;12904;50.088;11.414;2022-09-23T06:09:35;4.10;99.90
24814;DHT22;12904;50.088;11.414;2022-09-23T06:12:01;4.20;99.90
24814;DHT22;12904;50.088;11.414;2022-09-23T06:14:27;4.30;99.90
24814;DHT22;12904;50.088;11.414;2022-09-23T06:16:53;4.40;99.90
24814;DHT22;12904;50.088;11.414;2022-09-23T06:19:19;4.50;99.90
24814;DHT22;12904;50.088;11.414;2022-09-23T06:21:44;4.50;99.90
24814;DHT22;12904;50.088;11.414;2022-09-23T06:24:10;4.60;99.90
24814;DHT22;12904;50.088;11.414;2022-09-23T06:26:36;4.70;99.90
24814;DHT22;12904;50.088;11.414;2022-09-23T06:29:08;4.80;99.90
24814;DHT22;12904;50.088;11.414;2022-09-23T06:31:34;4.90;99.90
24814;DHT22;12904;50.088;11.414;2022-09-23T06:34:00;5.00;99.90
24814;DHT22;12904;50.088;11.414;2022-09-23T06:36:25;5.10;99.90
24814;DHT22;12904;50.088;11.414;2022-09-23T06:38:51;5.10;99.90
24814;DHT22;12904;50.088;11.414;2022-09-23T06:41:17;5.20;99.90
24814;DHT22;12904;50.088;11.414;2022-09-23T06:43:45;5.30;99.90
24814;DHT22;12904;50.088;11.414;2022-09-23T06:46:13;5.40;99.90
24814;DHT22;12904;50.088;11.414;2022-09-23T06:48:40;5.50;99.90
24814;DHT22;12904;50.088;11.414;2022-09-23T06:51:06;5.60;99.90
24814;DHT22;12904;50.088;11.414;2022-09-23T06:53:32;5.70;99.90
24814;DHT22;12904;50.088;11.414;2022-09-23T06:56:04;5.80;99.90
24814;DHT22;12904;50.088;11.414;2022-09-23T06:58:31;5.90;99.90
24814;DHT22;12904;50.088;11.414;2022-09-23T07:01:08;6.00;99.90
24814;DHT22;12904;50.088;11.414;2022-09-23T07:03:35;6.10;99.90
24814;DHT22;12904;50.088;11.414;2022-09-23T07:06:01;6.30;99.90
24814;DHT22;12904;50.088;11.414;2022-09-23T07:08:28;6.40;99.90
24814;DHT22;12904;50.088;11.414;2022-09-23T07:10:58;6.50;99.90
24814;DHT22;12904;50.088;11.414;2022-09-23T07:13:25;6.60;99.90
24814;DHT22;12904;50.088;11.414;2022-09-23T07:15:52;6.60;99.90
24814;DHT22;12904;50.088;11.414;2022-09-23T07:18:19;6.70;99.90
24814;DHT22;12904;50.088;11.414;2022-09-23T07:20:46;6.80;99.90
24814;DHT22;12904;50.088;11.414;2022-09-23T07:23:12;6.90;99.90
24814;DHT22;12904;50.088;11.414;2022-09-23T07:25:38;7.00;99.90
24814;DHT22;12904;50.088;11.414;2022-09-23T07:28:05;7.10;99.90
24814;DHT22;12904;50.088;11.414;2022-09-23T07:30:34;7.10;99.90
24814;DHT22;12904;50.088;11.414;2022-09-23T07:33:00;7.20;99.90
24814;DHT22;12904;50.088;11.414;2022-09-23T07:35:25;7.30;99.90
24814;DHT22;12904;50.088;11.414;2022-09-23T07:37:52;7.40;99.90
24814;DHT22;12904;50.088;11.414;2022-09-23T07:40:18;7.50;99.90
24814;DHT22;12904;50.088;11.414;2022-09-23T07:42:43;7.60;99.90
24814;DHT22;12904;50.088;11.414;2022-09-23T07:45:09;7.70;99.90
24814;DHT22;12904;50.088;11.414;2022-09-23T07:47:35;7.80;99.90
24814;DHT22;12904;50.088;11.414;2022-09-23T07:50:04;7.90;99.90
24814;DHT22;12904;50.088;11.414;2022-09-23T07:52:29;8.00;99.90
24814;DHT22;12904;50.088;11.414;2022-09-23T07:54:55;8.10;99.90
24814;DHT22;12904;50.088;11.414;2022-09-23T07:57:21;8.20;99.90
24814;DHT22;12904;50.088;11.414;2022-09-23T07:59:46;8.30;99.90
24814;DHT22;12904;50.088;11.414;2022-09-23T08:02:12;8.50;99.90
24814;DHT22;12904;50.088;11.414;2022-09-23T08:04:39;8.80;99.90
24814;DHT22;12904;50.088;11.414;2022-09-23T08:07:05;9.00;99.90
24814;DHT22;12904;50.088;11.414;2022-09-23T08:09:34;9.20;99.90
24814;DHT22;12904;50.088;11.414;2022-09-23T08:12:00;9.40;99.90
24814;DHT22;12904;50.088;11.414;2022-09-23T08:14:26;9.50;99.90
24814;DHT22;12904;50.088;11.414;2022-09-23T08:16:52;9.60;99.90
24814;DHT22;12904;50.088;11.414;2022-09-23T08:19:18;9.70;99.90
24814;DHT22;12904;50.088;11.414;2022-09-23T08:21:45;9.90;99.90
24814;DHT22;12904;50.088;11.414;2022-09-23T08:24:16;10.00;99.90
24814;DHT22;12904;50.088;11.414;2022-09-23T08:26:43;10.10;99.90
24814;DHT22;12904;50.088;11.414;2022-09-23T08:29:12;10.30;99.90
24814;DHT22;12904;50.088;11.414;2022-09-23T08:31:37;10.40;99.90
24814;DHT22;12904;50.088;11.414;2022-09-23T08:34:03;10.60;99.90
24814;DHT22;12904;50.088;11.414;2022-09-23T08:36:30;10.70;99.90
24814;DHT22;12904;50.088;11.414;2022-09-23T08:38:56;10.80;99.90
24814;DHT22;12904;50.088;11.414;2022-09-23T08:44:41;11.20;99.90
24814;DHT22;12904;50.088;11.414;2022-09-23T08:50:45;11.60;99.90
24814;DHT22;12904;50.088;11.414;2022-09-23T08:53:00;11.80;99.90
24814;DHT22;12904;50.088;11.414;2022-09-23T08:55:36;11.90;99.90
24814;DHT22;12904;50.088;11.414;2022-09-23T09:03:23;12.60;99.90
24814;DHT22;12904;50.088;11.414;2022-09-23T09:05:51;13.10;99.90
24814;DHT22;12904;50.088;11.414;2022-09-23T09:08:31;14.40;99.90
24814;DHT22;12904;50.088;11.414;2022-09-23T09:10:59;16.00;99.90
24814;DHT22;12904;50.088;11.414;2022-09-23T09:13:31;17.10;99.90
24814;DHT22;12904;50.088;11.414;2022-09-23T09:18:51;18.30;99.90
24814;DHT22;12904;50.088;11.414;2022-09-23T09:21:21;18.50;99.90
24814;DHT22;12904;50.088;11.414;2022-09-23T09:23:56;18.50;99.90
24814;DHT22;12904;50.088;11.414;2022-09-23T09:29:13;18.20;99.90
24814;DHT22;12904;50.088;11.414;2022-09-23T09:31:44;18.00;99.90
24814;DHT22;12904;50.088;11.414;2022-09-23T09:39:17;17.50;99.90
24814;DHT22;12904;50.088;11.414;2022-09-23T09:41:49;17.40;99.90
24814;DHT22;12904;50.088;11.414;2022-09-23T09:44:55;17.20;99.90
24814;DHT22;12904;50.088;11.414;2022-09-23T09:50:08;17.00;99.90
24814;DHT22;12904;50.088;11.414;2022-09-23T09:52:34;17.00;99.90
24814;DHT22;12904;50.088;11.414;2022-09-23T09:57:49;17.20;99.90
24814;DHT22;12904;50.088;11.414;2022-09-23T10:05:34;17.40;99.90
24814;DHT22;12904;50.088;11.414;2022-09-23T10:10:52;17.60;99.90
24814;DHT22;12904;50.088;11.414;2022-09-23T10:13:24;17.70;99.90
24814;DHT22;12904;50.088;11.414;2022-09-23T10:15:52;17.70;99.90
24814;DHT22;12904;50.088;11.414;2022-09-23T10:18:25;17.70;99.90
24814;DHT22;12904;50.088;11.414;2022-09-23T10:21:08;17.90;99.90
24814;DHT22;12904;50.088;11.414;2022-09-23T10:23:42;18.00;99.90
24814;DHT22;12904;50.088;11.414;2022-09-23T10:26:10;18.20;96.70
24814;DHT22;12904;50.088;11.414;2022-09-23T10:31:13;18.10;99.90
24814;DHT22;12904;50.088;11.414;2022-09-23T10:37:20;17.70;99.90
24814;DHT22;12904;50.088;11.414;2022-09-23T10:39:48;17.60;99.90
24814;DHT22;12904;50.088;11.414;2022-09-23T10:45:33;17.50;99.90
24814;DHT22;12904;50.088;11.414;2022-09-23T10:48:39;17.40;99.90
24814;DHT22;12904;50.088;11.414;2022-09-23T11:01:42;17.20;99.90
24814;DHT22;12904;50.088;11.414;2022-09-23T11:20:44;17.30;99.90
24814;DHT22;12904;50.088;11.414;2022-09-23T11:29:13;17.10;99.90
24814;DHT22;12904;50.088;11.414;2022-09-23T11:32:01;17.10;99.90
24814;DHT22;12904;50.088;11.414;2022-09-23T11:34:41;17.10;99.90
24814;DHT22;12904;50.088;11.414;2022-09-23T11:37:17;17.10;99.90
24814;DHT22;12904;50.088;11.414;2022-09-23T11:42:19;17.10;99.90
24814;DHT22;12904;50.088;11.414;2022-09-23T11:44:50;17.20;99.90
24814;DHT22;12904;50.088;11.414;2022-09-23T11:47:32;17.20;97.20
24814;DHT22;12904;50.088;11.414;2022-09-23T11:50:24;17.20;99.90
24814;DHT22;12904;50.088;11.414;2022-09-23T11:52:52;17.20;94.20
24814;DHT22;12904;50.088;11.414;2022-09-23T11:55:29;17.30;90.20
24814;DHT22;12904;50.088;11.414;2022-09-23T12:00:32;17.50;92.30
24814;DHT22;12904;50.088;11.414;2022-09-23T12:05:39;17.70;99.90
24814;DHT22;12904;50.088;11.414;2022-09-23T12:13:33;17.90;94.80
24814;DHT22;12904;50.088;11.414;2022-09-23T12:27:05;17.60;82.40
24814;DHT22;12904;50.088;11.414;2022-09-23T12:29:34;17.60;96.80
24814;DHT22;12904;50.088;11.414;2022-09-23T12:32:01;17.70;99.90
24814;DHT22;12904;50.088;11.414;2022-09-23T12:34:41;17.70;86.30
24814;DHT22;12904;50.088;11.414;2022-09-23T12:37:12;17.70;78.90
24814;DHT22;12904;50.088;11.414;2022-09-23T12:39:45;17.70;77.70
24814;DHT22;12904;50.088;11.414;2022-09-23T12:42:21;17.70;76.60
24814;DHT22;12904;50.088;11.414;2022-09-23T12:44:48;17.70;99.90
24814;DHT22;12904;50.088;11.414;2022-09-23T12:49:52;17.60;99.40
24814;DHT22;12904;50.088;11.414;2022-09-23T12:54:48;17.50;84.60
24814;DHT22;12904;50.088;11.414;2022-09-23T13:02:40;17.60;99.90
24814;DHT22;12904;50.088;11.414;2022-09-23T13:05:30;17.60;98.60
24814;DHT22;12904;50.088;11.414;2022-09-23T13:08:19;17.70;99.90
24814;DHT22;12904;50.088;11.414;2022-09-23T13:13:30;17.70;88.60
24814;DHT22;12904;50.088;11.414;2022-09-23T13:19:04;17.80;78.00
24814;DHT22;12904;50.088;11.414;2022-09-23T13:29:39;17.90;78.20
24814;DHT22;12904;50.088;11.414;2022-09-23T13:32:14;18.00;83.00
24814;DHT22;12904;50.088;11.414;2022-09-23T13:34:44;18.00;91.50
24814;DHT22;12904;50.088;11.414;2022-09-23T13:37:23;18.10;99.90
24814;DHT22;12904;50.088;11.414;2022-09-23T13:39:50;18.00;94.60
24814;DHT22;12904;50.088;11.414;2022-09-23T13:42:24;18.00;80.50
24814;DHT22;12904;50.088;11.414;2022-09-23T13:44:56;17.90;87.00
24814;DHT22;12904;50.088;11.414;2022-09-23T13:47:30;17.80;95.90
24814;DHT22;12904;50.088;11.414;2022-09-23T13:49:56;17.70;99.90
24814;DHT22;12904;50.088;11.414;2022-09-23T13:52:32;17.60;99.90
24814;DHT22;12904;50.088;11.414;2022-09-23T13:54:57;17.50;95.40
24814;DHT22;12904;50.088;11.414;2022-09-23T13:57:31;17.40;87.90
24814;DHT22;12904;50.088;11.414;2022-09-23T14:00:17;17.40;72.60
24814;DHT22;12904;50.088;11.414;2022-09-23T14:02:43;17.50;86.60
24814;DHT22;12904;50.088;11.414;2022-09-23T14:05:12;17.50;91.30
24814;DHT22;12904;50.088;11.414;2022-09-23T14:07:47;17.60;81.10
24814;DHT22;12904;50.088;11.414;2022-09-23T14:10:19;17.70;75.90
24814;DHT22;12904;50.088;11.414;2022-09-23T14:12:46;17.70;81.50
24814;DHT22;12904;50.088;11.414;2022-09-23T14:15:14;17.80;79.90
24814;DHT22;12904;50.088;11.414;2022-09-23T14:17:44;17.80;75.00
24814;DHT22;12904;50.088;11.414;2022-09-23T14:20:13;17.80;75.90
24814;DHT22;12904;50.088;11.414;2022-09-23T14:22:39;17.80;80.40
24814;DHT22;12904;50.088;11.414;2022-09-23T14:25:14;17.70;84.30
24814;DHT22;12904;50.088;11.414;2022-09-23T14:27:41;17.60;88.40
24814;DHT22;12904;50.088;11.414;2022-09-23T14:30:15;17.60;91.10
24814;DHT22;12904;50.088;11.414;2022-09-23T14:32:43;17.60;99.90
24814;DHT22;12904;50.088;11.414;2022-09-23T14:35:21;17.60;91.90
24814;DHT22;12904;50.088;11.414;2022-09-23T14:37:54;17.60;90.40
24814;DHT22;12904;50.088;11.414;2022-09-23T14:41:12;17.70;99.90
24814;DHT22;12904;50.088;11.414;2022-09-23T14:46:20;17.80;99.10
24814;DHT22;12904;50.088;11.414;2022-09-23T14:48:55;17.80;92.90
24814;DHT22;12904;50.088;11.414;2022-09-23T14:51:31;17.80;95.80
24814;DHT22;12904;50.088;11.414;2022-09-23T14:57:24;17.70;99.90
24814;DHT22;12904;50.088;11.414;2022-09-23T15:02:36;17.60;95.80
24814;DHT22;12904;50.088;11.414;2022-09-23T15:05:19;17.50;99.90
24814;DHT22;12904;50.088;11.414;2022-09-23T15:07:55;17.40;99.90
24814;DHT22;12904;50.088;11.414;2022-09-23T15:10:26;17.40;99.90
24814;DHT22;12904;50.088;11.414;2022-09-23T15:15:45;17.50;99.90
24814;DHT22;12904;50.088;11.414;2022-09-23T15:18:17;17.40;99.90
24814;DHT22;12904;50.088;11.414;2022-09-23T15:21:10;17.40;99.90
24814;DHT22;12904;50.088;11.414;2022-09-23T15:23:46;17.30;99.90
24814;DHT22;12904;50.088;11.414;2022-09-23T15:26:15;17.30;99.90
24814;DHT22;12904;50.088;11.414;2022-09-23T15:28:42;17.20;99.90
24814;DHT22;12904;50.088;11.414;2022-09-23T15:31:16;17.20;99.90
24814;DHT22;12904;50.088;11.414;2022-09-23T15:33:46;17.20;99.90
24814;DHT22;12904;50.088;11.414;2022-09-23T15:38:43;17.30;99.90
24814;DHT22;12904;50.088;11.414;2022-09-23T15:41:09;17.30;99.90
24814;DHT22;12904;50.088;11.414;2022-09-23T15:43:34;17.30;99.90
24814;DHT22;12904;50.088;11.414;2022-09-23T15:46:05;17.30;99.90
24814;DHT22;12904;50.088;11.414;2022-09-23T15:48:40;17.20;99.90
24814;DHT22;12904;50.088;11.414;2022-09-23T15:51:07;17.10;99.90
24814;DHT22;12904;50.088;11.414;2022-09-23T15:53:34;16.90;99.90
24814;DHT22;12904;50.088;11.414;2022-09-23T15:56:02;16.80;99.90
24814;DHT22;12904;50.088;11.414;2022-09-23T15:58:28;16.70;99.90
24814;DHT22;12904;50.088;11.414;2022-09-23T16:00:55;16.60;99.90
24814;DHT22;12904;50.088;11.414;2022-09-23T16:03:21;16.40;99.90
24814;DHT22;12904;50.088;11.414;2022-09-23T16:05:50;16.30;99.90
24814;DHT22;12904;50.088;11.414;2022-09-23T16:08:16;16.10;99.90
24814;DHT22;12904;50.088;11.414;2022-09-23T16:10:47;16.00;99.90
24814;DHT22;12904;50.088;11.414;2022-09-23T16:13:13;15.90;99.90
24814;DHT22;12904;50.088;11.414;2022-09-23T16:15:40;15.80;99.90
24814;DHT22;12904;50.088;11.414;2022-09-23T16:18:07;15.80;99.90
24814;DHT22;12904;50.088;11.414;2022-09-23T16:20:42;15.70;99.90
24814;DHT22;12904;50.088;11.414;2022-09-23T16:25:37;15.80;99.90
24814;DHT22;12904;50.088;11.414;2022-09-23T16:28:03;15.80;99.90
24814;DHT22;12904;50.088;11.414;2022-09-23T16:30:31;15.80;99.90
24814;DHT22;12904;50.088;11.414;2022-09-23T16:32:57;15.80;99.90
24814;DHT22;12904;50.088;11.414;2022-09-23T16:35:24;15.70;99.90
24814;DHT22;12904;50.088;11.414;2022-09-23T16:37:51;15.60;99.90
24814;DHT22;12904;50.088;11.414;2022-09-23T16:40:19;15.50;99.90
24814;DHT22;12904;50.088;11.414;2022-09-23T16:42:46;15.40;99.90
24814;DHT22;12904;50.088;11.414;2022-09-23T16:45:13;15.30;99.90
24814;DHT22;12904;50.088;11.414;2022-09-23T16:47:46;15.20;99.90
24814;DHT22;12904;50.088;11.414;2022-09-23T16:50:17;15.00;99.90
24814;DHT22;12904;50.088;11.414;2022-09-23T16:52:43;14.90;99.90
24814;DHT22;12904;50.088;11.414;2022-09-23T16:55:10;14.70;99.90
24814;DHT22;12904;50.088;11.414;2022-09-23T16:57:37;14.50;99.90
24814;DHT22;12904;50.088;11.414;2022-09-23T17:00:11;14.40;99.90
24814;DHT22;12904;50.088;11.414;2022-09-23T17:02:56;14.20;99.90
24814;DHT22;12904;50.088;11.414;2022-09-23T17:05:40;14.00;99.90
24814;DHT22;12904;50.088;11.414;2022-09-23T17:08:06;13.70;99.90
24814;DHT22;12904;50.088;11.414;2022-09-23T17:10:32;13.50;99.90
24814;DHT22;12904;50.088;11.414;2022-09-23T17:12:58;13.40;99.90
24814;DHT22;12904;50.088;11.414;2022-09-23T17:15:24;13.20;99.90
24814;DHT22;12904;50.088;11.414;2022-09-23T17:17:50;13.10;99.90
24814;DHT22;12904;50.088;11.414;2022-09-23T17:20:16;12.90;99.90
24814;DHT22;12904;50.088;11.414;2022-09-23T17:22:42;12.80;99.90
24814;DHT22;12904;50.088;11.414;2022-09-23T17:25:08;12.60;99.90
24814;DHT22;12904;50.088;11.414;2022-09-23T17:27:34;12.60;99.90
24814;DHT22;12904;50.088;11.414;2022-09-23T17:30:01;12.50;99.90
24814;DHT22;12904;50.088;11.414;2022-09-23T17:32:27;12.40;99.90
24814;DHT22;12904;50.088;11.414;2022-09-23T17:34:52;12.40;99.90
24814;DHT22;12904;50.088;11.414;2022-09-23T17:37:18;12.40;99.90
24814;DHT22;12904;50.088;11.414;2022-09-23T17:39:44;12.30;99.90
24814;DHT22;12904;50.088;11.414;2022-09-23T17:42:10;12.20;99.90
24814;DHT22;12904;50.088;11.414;2022-09-23T17:44:36;12.20;99.90
24814;DHT22;12904;50.088;11.414;2022-09-23T17:47:02;12.10;99.90
24814;DHT22;12904;50.088;11.414;2022-09-23T17:49:29;12.00;99.90
24814;DHT22;12904;50.088;11.414;2022-09-23T17:52:01;11.90;99.90
24814;DHT22;12904;50.088;11.414;2022-09-23T17:54:29;11.90;99.90
24814;DHT22;12904;50.088;11.414;2022-09-23T17:56:57;11.80;99.90
24814;DHT22;12904;50.088;11.414;2022-09-23T17:59:23;11.70;99.90
24814;DHT22;12904;50.088;11.414;2022-09-23T18:01:49;11.70;99.90
24814;DHT22;12904;50.088;11.414;2022-09-23T18:04:14;11.60;99.90
24814;DHT22;12904;50.088;11.414;2022-09-23T18:06:40;11.60;99.90
24814;DHT22;12904;50.088;11.414;2022-09-23T18:09:06;11.50;99.90
24814;DHT22;12904;50.088;11.414;2022-09-23T18:11:37;11.50;99.90
24814;DHT22;12904;50.088;11.414;2022-09-23T18:14:13;11.40;99.90
24814;DHT22;12904;50.088;11.414;2022-09-23T18:16:41;11.40;99.90
24814;DHT22;12904;50.088;11.414;2022-09-23T18:19:10;11.40;99.90
24814;DHT22;12904;50.088;11.414;2022-09-23T18:21:38;11.30;99.90
24814;DHT22;12904;50.088;11.414;2022-09-23T18:24:05;11.30;99.90
24814;DHT22;12904;50.088;11.414;2022-09-23T18:26:32;11.30;99.90
24814;DHT22;12904;50.088;11.414;2022-09-23T18:28:59;11.20;99.90
24814;DHT22;12904;50.088;11.414;2022-09-23T18:31:28;11.20;99.90
24814;DHT22;12904;50.088;11.414;2022-09-23T18:33:59;11.20;99.90
24814;DHT22;12904;50.088;11.414;2022-09-23T18:36:25;11.20;99.90
24814;DHT22;12904;50.088;11.414;2022-09-23T18:38:52;11.10;99.90
24814;DHT22;12904;50.088;11.414;2022-09-23T18:41:17;10.90;99.90
24814;DHT22;12904;50.088;11.414;2022-09-23T18:43:44;10.80;99.90
24814;DHT22;12904;50.088;11.414;2022-09-23T18:46:17;10.70;99.90
24814;DHT22;12904;50.088;11.414;2022-09-23T18:48:43;10.60;99.90
24814;DHT22;12904;50.088;11.414;2022-09-23T18:51:28;10.50;99.90
24814;DHT22;12904;50.088;11.414;2022-09-23T18:53:56;10.40;99.90
24814;DHT22;12904;50.088;11.414;2022-09-23T18:56:37;10.30;99.90